createdAt,value
2018-09-27T00:00:47.075Z,3.30
2018-09-27T00:01:46.991Z,4.80
2018-09-27T00:02:46.879Z,4.90
2018-09-27T00:03:46.784Z,4.60
2018-09-27T00:04:46.682Z,3.60
2018-09-27T00:05:46.583Z,4.50
2018-09-27T00:06:46.505Z,3.90
2018-09-27T00:07:46.391Z,4.40
2018-09-27T00:08:46.291Z,4.20
2018-09-27T00:09:46.195Z,3.30
2018-09-27T00:10:46.099Z,4.40
2018-09-27T00:11:46.021Z,4.20
2018-09-27T00:12:45.899Z,4.00
2018-09-27T00:13:45.804Z,4.50
2018-09-27T00:14:45.711Z,4.40
2018-09-27T00:15:45.607Z,5.60
2018-09-27T00:16:45.511Z,3.20
2018-09-27T00:17:45.431Z,3.40
2018-09-27T00:18:45.319Z,3.40
2018-09-27T00:19:45.218Z,3.10
2018-09-27T00:20:45.124Z,3.60
2018-09-27T00:21:45.023Z,6.00
2018-09-27T00:22:44.938Z,5.00
2018-09-27T00:23:44.826Z,4.80
2018-09-27T00:24:44.727Z,4.80
2018-09-27T00:25:44.629Z,3.60
2018-09-27T00:26:44.535Z,3.00
2018-09-27T00:27:44.453Z,3.40
2018-09-27T00:28:44.341Z,3.10
2018-09-27T00:29:44.240Z,3.30
2018-09-27T00:30:44.141Z,6.00
2018-09-27T00:31:44.047Z,3.30
2018-09-27T00:32:43.962Z,4.20
2018-09-27T00:33:43.850Z,3.10
2018-09-27T00:34:43.754Z,2.80
2018-09-27T00:35:43.654Z,3.30
2018-09-27T00:36:43.556Z,3.50
2018-09-27T00:37:43.477Z,4.90
2018-09-27T00:38:43.361Z,3.70
2018-09-27T00:39:43.263Z,4.10
2018-09-27T00:40:43.165Z,4.80
2018-09-27T00:41:43.066Z,4.30
2018-09-27T00:42:42.993Z,3.90
2018-09-27T00:43:42.873Z,3.30
2018-09-27T00:44:42.777Z,3.40
2018-09-27T00:45:42.679Z,5.00
2018-09-27T00:46:42.579Z,4.00
2018-09-27T00:47:42.497Z,3.70
2018-09-27T00:48:42.383Z,4.00
2018-09-27T00:49:42.289Z,4.80
2018-09-27T00:50:42.188Z,4.40
2018-09-27T00:51:42.089Z,3.90
2018-09-27T00:52:42.012Z,4.70
2018-09-27T00:53:41.900Z,3.50
2018-09-27T00:54:41.796Z,4.60
2018-09-27T00:55:41.699Z,4.10
2018-09-27T00:56:41.598Z,4.00
2018-09-27T00:57:41.519Z,4.50
2018-09-27T00:58:41.405Z,3.30
2018-09-27T00:59:41.306Z,3.40
2018-09-27T01:00:41.209Z,4.40
2018-09-27T01:01:41.112Z,4.20
2018-09-27T01:02:41.029Z,4.10
2018-09-27T01:03:40.929Z,4.80
2018-09-27T01:04:40.915Z,4.10
2018-09-27T01:05:40.719Z,3.40
2018-09-27T01:06:40.624Z,4.10
2018-09-27T01:07:40.537Z,5.20
2018-09-27T01:08:40.439Z,3.70
2018-09-27T01:09:40.329Z,4.00
2018-09-27T01:10:40.232Z,4.80
2018-09-27T01:11:40.236Z,5.10
2018-09-27T01:12:40.050Z,5.00
2018-09-27T01:13:39.936Z,4.30
2018-09-27T01:14:39.838Z,4.20
2018-09-27T01:15:39.738Z,3.70
2018-09-27T01:16:39.643Z,5.30
2018-09-27T01:17:39.562Z,4.10
2018-09-27T01:18:39.554Z,4.70
2018-09-27T01:19:39.348Z,4.20
2018-09-27T01:20:39.249Z,3.80
2018-09-27T01:21:39.156Z,5.10
2018-09-27T01:22:39.072Z,3.60
2018-09-27T01:23:38.959Z,4.20
2018-09-27T01:24:38.861Z,3.70
2018-09-27T01:25:38.858Z,4.10
2018-09-27T01:26:38.665Z,4.30
2018-09-27T01:27:38.583Z,3.80
2018-09-27T01:28:38.470Z,3.80
2018-09-27T01:29:38.370Z,3.90
2018-09-27T01:30:38.271Z,3.90
2018-09-27T01:31:38.172Z,3.80
2018-09-27T01:32:38.215Z,3.90
2018-09-27T01:33:37.976Z,5.10
2018-09-27T01:34:37.880Z,4.60
2018-09-27T01:35:37.779Z,5.60
2018-09-27T01:36:37.682Z,4.60
2018-09-27T01:37:37.605Z,4.30
2018-09-27T01:38:37.488Z,4.90
2018-09-27T01:39:37.484Z,5.40
2018-09-27T01:40:37.288Z,4.50
2018-09-27T01:41:37.196Z,4.10
2018-09-27T01:42:37.112Z,4.90
2018-09-27T01:43:36.996Z,4.00
2018-09-27T01:44:36.895Z,4.90
2018-09-27T01:45:36.801Z,5.20
2018-09-27T01:46:36.803Z,4.50
2018-09-27T01:47:36.622Z,5.00
2018-09-27T01:48:36.505Z,4.90
2018-09-27T01:49:36.430Z,4.50
2018-09-27T01:50:36.339Z,4.80
2018-09-27T01:51:36.211Z,4.80
2018-09-27T01:52:36.128Z,6.20
2018-09-27T01:53:36.117Z,4.40
2018-09-27T01:54:35.919Z,4.60
2018-09-27T01:55:35.822Z,4.20
2018-09-27T01:56:35.722Z,6.40
2018-09-27T01:57:35.641Z,5.30
2018-09-27T01:58:35.526Z,5.30
2018-09-27T01:59:35.425Z,4.30
2018-09-27T02:00:35.431Z,4.50
2018-09-27T02:01:35.237Z,4.80
2018-09-27T02:02:35.132Z,7.00
2018-09-27T02:03:35.053Z,4.80
2018-09-27T02:04:34.939Z,5.00
2018-09-27T02:05:34.836Z,5.20
2018-09-27T02:06:34.743Z,6.10
2018-09-27T02:07:34.744Z,4.90
2018-09-27T02:08:34.561Z,4.30
2018-09-27T02:09:34.450Z,4.30
2018-09-27T02:10:34.349Z,4.90
2018-09-27T02:11:34.253Z,4.70
2018-09-27T02:12:34.153Z,4.80
2018-09-27T02:13:34.069Z,4.30
2018-09-27T02:14:34.055Z,5.00
2018-09-27T02:15:33.854Z,4.20
2018-09-27T02:16:33.759Z,5.40
2018-09-27T02:17:33.661Z,4.00
2018-09-27T02:18:33.578Z,4.50
2018-09-27T02:19:33.465Z,4.60
2018-09-27T02:20:33.368Z,4.70
2018-09-27T02:21:33.268Z,4.00
2018-09-27T02:22:33.182Z,5.30
2018-09-27T02:23:33.086Z,3.80
2018-09-27T02:24:32.975Z,4.40
2018-09-27T02:25:32.876Z,4.10
2018-09-27T02:26:32.780Z,4.60
2018-09-27T02:27:32.676Z,5.40
2018-09-27T02:28:32.598Z,5.50
2018-09-27T02:29:32.482Z,4.70
2018-09-27T02:30:32.381Z,4.60
2018-09-27T02:31:32.286Z,4.90
2018-09-27T02:32:32.197Z,3.70
2018-09-27T02:33:32.111Z,3.80
2018-09-27T02:34:31.993Z,4.40
2018-09-27T02:35:31.895Z,3.70
2018-09-27T02:36:31.790Z,4.00
2018-09-27T02:37:31.699Z,3.70
2018-09-27T02:38:31.612Z,3.90
2018-09-27T02:39:31.497Z,5.90
2018-09-27T02:40:31.401Z,4.50
2018-09-27T02:41:31.303Z,4.00
2018-09-27T02:42:31.203Z,5.00
2018-09-27T02:43:31.122Z,4.70
2018-09-27T02:44:31.008Z,4.60
2018-09-27T02:45:30.909Z,4.50
2018-09-27T02:46:30.818Z,4.00
2018-09-27T02:47:30.712Z,4.00
2018-09-27T02:48:30.640Z,4.70
2018-09-27T02:49:30.518Z,4.80
2018-09-27T02:50:30.418Z,4.90
2018-09-27T02:51:30.321Z,5.20
2018-09-27T02:52:30.224Z,4.80
2018-09-27T02:53:30.140Z,4.60
2018-09-27T02:54:30.027Z,4.70
2018-09-27T02:55:29.932Z,8.10
2018-09-27T02:56:29.832Z,4.20
2018-09-27T02:57:29.734Z,4.70
2018-09-27T02:58:29.655Z,5.20
2018-09-27T02:59:29.537Z,4.50
2018-09-27T03:00:29.438Z,4.30
2018-09-27T03:01:29.342Z,4.90
2018-09-27T03:02:29.245Z,4.30
2018-09-27T03:03:29.159Z,5.70
2018-09-27T03:04:29.047Z,4.90
2018-09-27T03:05:28.950Z,4.40
2018-09-27T03:06:28.852Z,4.70
2018-09-27T03:07:28.752Z,4.90
2018-09-27T03:08:28.673Z,4.00
2018-09-27T03:09:28.559Z,3.70
2018-09-27T03:10:28.458Z,3.80
2018-09-27T03:11:28.359Z,3.90
2018-09-27T03:12:28.262Z,3.60
2018-09-27T03:13:28.180Z,4.10
2018-09-27T03:14:28.066Z,3.90
2018-09-27T03:15:27.967Z,4.70
2018-09-27T03:16:27.870Z,4.40
2018-09-27T03:17:27.776Z,5.20
2018-09-27T03:18:27.689Z,4.00
2018-09-27T03:19:27.577Z,5.00
2018-09-27T03:20:27.477Z,3.40
2018-09-27T03:21:27.379Z,4.30
2018-09-27T03:22:27.294Z,4.80
2018-09-27T03:23:27.200Z,4.30
2018-09-27T03:24:27.085Z,4.10
2018-09-27T03:25:26.991Z,4.80
2018-09-27T03:26:26.888Z,3.70
2018-09-27T03:27:26.793Z,4.30
2018-09-27T03:28:26.709Z,3.90
2018-09-27T03:29:26.597Z,5.90
2018-09-27T03:30:26.498Z,5.10
2018-09-27T03:31:26.401Z,4.00
2018-09-27T03:32:26.309Z,3.70
2018-09-27T03:33:26.219Z,4.00
2018-09-27T03:34:26.107Z,3.90
2018-09-27T03:35:26.012Z,4.40
2018-09-27T03:36:25.907Z,4.10
2018-09-27T03:37:25.811Z,4.00
2018-09-27T03:38:25.739Z,4.20
2018-09-27T03:39:25.620Z,4.20
2018-09-27T03:40:25.520Z,5.00
2018-09-27T03:41:25.419Z,4.10
2018-09-27T03:42:25.321Z,3.90
2018-09-27T03:43:25.242Z,3.80
2018-09-27T03:44:25.229Z,3.80
2018-09-27T03:45:25.026Z,4.30
2018-09-27T03:46:24.927Z,3.40
2018-09-27T03:47:24.830Z,4.50
2018-09-27T03:48:24.734Z,4.00
2018-09-27T03:49:24.675Z,3.50
2018-09-27T03:50:24.536Z,4.40
2018-09-27T03:51:24.490Z,4.10
2018-09-27T03:52:24.342Z,3.60
2018-09-27T03:53:24.244Z,3.40
2018-09-27T03:54:24.160Z,3.50
2018-09-27T03:55:24.049Z,3.80
2018-09-27T03:56:23.946Z,3.80
2018-09-27T03:57:23.850Z,6.80
2018-09-27T03:58:23.757Z,3.80
2018-09-27T03:59:23.694Z,4.00
2018-09-27T04:00:23.554Z,3.80
2018-09-27T04:01:23.458Z,4.90
2018-09-27T04:02:23.359Z,3.50
2018-09-27T04:03:23.363Z,3.70
2018-09-27T04:04:23.180Z,4.60
2018-09-27T04:05:23.067Z,3.30
2018-09-27T04:06:22.966Z,3.40
2018-09-27T04:07:22.869Z,3.60
2018-09-27T04:08:22.776Z,4.20
2018-09-27T04:09:22.691Z,3.80
2018-09-27T04:10:22.577Z,4.90
2018-09-27T04:11:22.477Z,4.00
2018-09-27T04:12:22.378Z,4.00
2018-09-27T04:13:22.279Z,5.50
2018-09-27T04:14:22.202Z,4.20
2018-09-27T04:15:22.085Z,4.80
2018-09-27T04:16:21.987Z,4.40
2018-09-27T04:17:21.892Z,4.10
2018-09-27T04:18:22.492Z,4.30
2018-09-27T04:19:21.711Z,4.40
2018-09-27T04:20:21.596Z,3.60
2018-09-27T04:21:21.495Z,4.20
2018-09-27T04:22:21.399Z,4.20
2018-09-27T04:23:21.301Z,3.80
2018-09-27T04:24:21.220Z,4.40
2018-09-27T04:25:21.109Z,4.10
2018-09-27T04:26:21.006Z,4.10
2018-09-27T04:27:21.100Z,4.70
2018-09-27T04:28:20.812Z,4.30
2018-09-27T04:29:20.729Z,4.20
2018-09-27T04:30:20.616Z,4.10
2018-09-27T04:31:20.517Z,5.20
2018-09-27T04:32:20.419Z,3.80
2018-09-27T04:33:20.323Z,4.60
2018-09-27T04:34:20.345Z,4.90
2018-09-27T04:35:20.127Z,4.70
2018-09-27T04:36:20.028Z,5.60
2018-09-27T04:37:19.930Z,7.20
2018-09-27T04:38:19.832Z,5.00
2018-09-27T04:39:19.750Z,5.20
2018-09-27T04:40:19.633Z,4.30
2018-09-27T04:41:19.643Z,4.40
2018-09-27T04:42:19.437Z,4.80
2018-09-27T04:43:19.340Z,5.10
2018-09-27T04:44:19.257Z,7.00
2018-09-27T04:45:19.144Z,4.80
2018-09-27T04:46:19.051Z,4.50
2018-09-27T04:47:18.946Z,4.50
2018-09-27T04:48:18.958Z,4.70
2018-09-27T04:49:18.767Z,4.40
2018-09-27T04:50:18.653Z,5.20
2018-09-27T04:51:18.556Z,5.00
2018-09-27T04:52:18.458Z,4.30
2018-09-27T04:53:18.358Z,5.00
2018-09-27T04:54:18.326Z,5.30
2018-09-27T04:55:18.265Z,5.10
2018-09-27T04:56:18.063Z,5.50
2018-09-27T04:57:17.966Z,5.10
2018-09-27T04:58:17.874Z,4.30
2018-09-27T04:59:17.789Z,5.60
2018-09-27T05:00:17.681Z,4.30
2018-09-27T05:01:17.576Z,4.80
2018-09-27T05:02:17.580Z,3.80
2018-09-27T05:03:17.377Z,4.30
2018-09-27T05:04:17.296Z,4.50
2018-09-27T05:05:17.182Z,5.30
2018-09-27T05:06:17.089Z,6.70
2018-09-27T05:07:16.986Z,5.10
2018-09-27T05:08:16.886Z,4.90
2018-09-27T05:09:16.907Z,4.50
2018-09-27T05:10:16.691Z,5.10
2018-09-27T05:11:16.594Z,4.50
2018-09-27T05:12:16.494Z,4.80
2018-09-27T05:13:16.397Z,4.80
2018-09-27T05:14:16.313Z,4.40
2018-09-27T05:15:16.325Z,4.10
2018-09-27T05:16:16.103Z,4.50
2018-09-27T05:17:16.002Z,4.10
2018-09-27T05:18:15.910Z,4.10
2018-09-27T05:19:15.824Z,4.60
2018-09-27T05:20:15.710Z,3.70
2018-09-27T05:21:15.621Z,5.80
2018-09-27T05:22:15.614Z,4.70
2018-09-27T05:23:15.413Z,4.00
2018-09-27T05:24:15.335Z,4.70
2018-09-27T05:25:15.231Z,5.70
2018-09-27T05:26:15.121Z,4.50
2018-09-27T05:27:15.083Z,4.60
2018-09-27T05:28:14.923Z,5.60
2018-09-27T05:29:14.840Z,4.90
2018-09-27T05:30:14.728Z,4.90
2018-09-27T05:31:14.631Z,5.30
2018-09-27T05:32:14.532Z,4.60
2018-09-27T05:33:14.435Z,5.70
2018-09-27T05:34:14.336Z,5.70
2018-09-27T05:35:14.268Z,4.60
2018-09-27T05:36:14.141Z,4.70
2018-09-27T05:37:14.043Z,5.50
2018-09-27T05:38:13.944Z,8.30
2018-09-27T05:39:13.846Z,4.60
2018-09-27T05:40:13.764Z,5.30
2018-09-27T05:41:13.650Z,5.00
2018-09-27T05:42:13.554Z,5.40
2018-09-27T05:43:13.452Z,5.30
2018-09-27T05:44:13.356Z,4.40
2018-09-27T05:45:13.273Z,5.20
2018-09-27T05:46:13.160Z,5.10
2018-09-27T05:47:13.061Z,4.90
2018-09-27T05:48:12.964Z,5.00
2018-09-27T05:49:12.869Z,5.10
2018-09-27T05:50:12.786Z,5.00
2018-09-27T05:51:12.668Z,5.20
2018-09-27T05:52:12.570Z,6.30
2018-09-27T05:53:12.473Z,4.70
2018-09-27T05:54:12.377Z,4.30
2018-09-27T05:55:12.290Z,4.30
2018-09-27T05:56:12.178Z,5.80
2018-09-27T05:57:12.085Z,4.30
2018-09-27T05:58:11.986Z,4.80
2018-09-27T05:59:11.885Z,5.10
2018-09-27T06:00:11.803Z,3.80
2018-09-27T06:01:11.692Z,3.70
2018-09-27T06:02:11.603Z,4.60
2018-09-27T06:03:11.492Z,4.00
2018-09-27T06:04:11.395Z,3.40
2018-09-27T06:05:11.316Z,3.40
2018-09-27T06:06:11.203Z,4.00
2018-09-27T06:07:11.108Z,5.40
2018-09-27T06:08:11.011Z,3.60
2018-09-27T06:09:10.915Z,3.70
2018-09-27T06:10:10.840Z,4.60
2018-09-27T06:11:10.725Z,4.90
2018-09-27T06:12:10.629Z,3.20
2018-09-27T06:13:10.532Z,3.50
2018-09-27T06:14:10.439Z,4.30
2018-09-27T06:15:10.356Z,3.50
2018-09-27T06:16:10.246Z,3.00
2018-09-27T06:17:10.153Z,4.00
2018-09-27T06:18:10.058Z,3.20
2018-09-27T06:19:09.963Z,3.80
2018-09-27T06:20:09.887Z,3.90
2018-09-27T06:21:09.773Z,3.70
2018-09-27T06:22:09.682Z,3.70
2018-09-27T06:23:09.593Z,5.50
2018-09-27T06:24:09.498Z,4.20
2018-09-27T06:25:09.417Z,4.30
2018-09-27T06:26:09.378Z,3.80
2018-09-27T06:27:09.214Z,3.80
2018-09-27T06:28:09.120Z,3.30
2018-09-27T06:29:09.027Z,4.00
2018-09-27T06:30:08.947Z,3.20
2018-09-27T06:31:08.842Z,3.80
2018-09-27T06:32:08.854Z,4.20
2018-09-27T06:33:08.666Z,3.70
2018-09-27T06:34:08.571Z,3.30
2018-09-27T06:35:08.552Z,3.20
2018-09-27T06:36:08.384Z,3.50
2018-09-27T06:37:08.287Z,3.30
2018-09-27T06:38:08.197Z,2.90
2018-09-27T06:39:08.215Z,3.00
2018-09-27T06:40:08.028Z,3.90
2018-09-27T06:41:07.926Z,3.30
2018-09-27T06:42:07.832Z,3.60
2018-09-27T06:43:07.742Z,2.90
2018-09-27T06:44:07.666Z,3.50
2018-09-27T06:45:07.575Z,3.40
2018-09-27T06:46:07.575Z,4.40
2018-09-27T06:47:07.377Z,3.30
2018-09-27T06:48:07.338Z,3.40
2018-09-27T06:49:07.192Z,3.80
2018-09-27T06:50:07.129Z,4.20
2018-09-27T06:51:07.017Z,4.70
2018-09-27T06:52:06.928Z,3.10
2018-09-27T06:53:06.941Z,4.20
2018-09-27T06:54:06.789Z,3.00
2018-09-27T06:55:06.740Z,3.70
2018-09-27T06:56:06.624Z,3.40
2018-09-27T06:57:06.476Z,3.90
2018-09-27T06:58:06.393Z,4.30
2018-09-27T06:59:06.299Z,4.70
2018-09-27T07:00:06.342Z,4.60
2018-09-27T07:01:06.123Z,3.40
2018-09-27T07:02:06.032Z,3.40
2018-09-27T07:03:05.945Z,3.40
2018-09-27T07:04:05.855Z,3.90
2018-09-27T07:05:05.801Z,3.50
2018-09-27T07:06:05.682Z,4.00
2018-09-27T07:07:05.698Z,4.40
2018-09-27T07:08:05.498Z,4.10
2018-09-27T07:09:05.416Z,4.00
2018-09-27T07:10:05.341Z,4.50
2018-09-27T07:11:05.235Z,4.90
2018-09-27T07:12:05.196Z,4.10
2018-09-27T07:13:05.058Z,3.60
2018-09-27T07:14:05.077Z,4.20
2018-09-27T07:15:04.899Z,4.80
2018-09-27T07:16:04.794Z,4.20
2018-09-27T07:17:04.706Z,4.20
2018-09-27T07:18:04.621Z,5.30
2018-09-27T07:19:04.540Z,3.70
2018-09-27T07:20:04.446Z,3.50
2018-09-27T07:21:04.478Z,3.70
2018-09-27T07:22:04.275Z,4.00
2018-09-27T07:23:04.182Z,4.90
2018-09-27T07:24:04.095Z,4.90
2018-09-27T07:25:04.051Z,4.80
2018-09-27T07:26:03.936Z,4.40
2018-09-27T07:27:04.030Z,4.70
2018-09-27T07:28:03.748Z,4.40
2018-09-27T07:29:03.664Z,5.70
2018-09-27T07:30:03.576Z,5.60
2018-09-27T07:31:03.546Z,5.30
2018-09-27T07:32:03.399Z,4.90
2018-09-27T07:33:03.315Z,4.90
2018-09-27T07:34:03.228Z,4.70
2018-09-27T07:35:03.255Z,4.80
2018-09-27T07:36:03.073Z,5.80
2018-09-27T07:37:02.970Z,4.60
2018-09-27T07:38:02.903Z,5.30
2018-09-27T07:39:02.797Z,5.60
2018-09-27T07:40:02.714Z,4.40
2018-09-27T07:41:02.751Z,4.70
2018-09-27T07:42:02.543Z,4.50
2018-09-27T07:43:02.462Z,4.80
2018-09-27T07:44:02.374Z,4.70
2018-09-27T07:45:02.288Z,4.20
2018-09-27T07:46:02.230Z,5.30
2018-09-27T07:47:02.120Z,4.00
2018-09-27T07:48:02.031Z,4.90
2018-09-27T07:49:01.949Z,4.50
2018-09-27T07:50:01.865Z,6.10
2018-09-27T07:51:01.795Z,4.70
2018-09-27T07:52:01.699Z,4.60
2018-09-27T07:53:01.618Z,5.80
2018-09-27T07:54:01.529Z,4.90
2018-09-27T07:55:01.447Z,3.90
2018-09-27T07:56:01.374Z,3.90
2018-09-27T07:57:01.276Z,4.60
2018-09-27T07:58:01.196Z,4.20
2018-09-27T07:59:01.111Z,5.40
2018-09-27T08:00:01.045Z,4.40
2018-09-27T08:01:00.971Z,4.40
2018-09-27T08:02:00.859Z,3.90
2018-09-27T08:03:00.888Z,4.20
2018-09-27T08:04:00.732Z,4.00
2018-09-27T08:05:00.609Z,3.60
2018-09-27T08:06:00.542Z,3.60
2018-09-27T08:07:00.445Z,3.60
2018-09-27T08:08:00.362Z,3.50
2018-09-27T08:09:00.284Z,3.60
2018-09-27T08:10:00.198Z,3.20
2018-09-27T08:11:00.173Z,3.70
2018-09-27T08:12:00.095Z,4.00
2018-09-27T08:12:59.949Z,4.10
2018-09-27T08:13:59.865Z,3.40
2018-09-27T08:14:59.782Z,3.70
2018-09-27T08:15:59.718Z,4.90
2018-09-27T08:16:59.655Z,3.50
2018-09-27T08:17:59.537Z,3.70
2018-09-27T08:18:59.454Z,4.00
2018-09-27T08:19:59.371Z,3.90
2018-09-27T08:20:59.408Z,4.90
2018-09-27T08:21:59.209Z,5.20
2018-09-27T08:22:59.121Z,5.80
2018-09-27T08:23:59.097Z,6.90
2018-09-27T08:24:58.962Z,5.70
2018-09-27T08:25:58.894Z,7.50
2018-09-27T08:26:58.795Z,6.00
2018-09-27T08:27:58.713Z,5.30
2018-09-27T08:28:58.634Z,5.90
2018-09-27T08:29:58.554Z,6.50
2018-09-27T08:30:58.581Z,6.60
2018-09-27T08:31:58.387Z,7.70
2018-09-27T08:32:58.303Z,6.80
2018-09-27T08:33:58.222Z,6.50
2018-09-27T08:34:58.139Z,6.50
2018-09-27T08:35:58.074Z,6.30
2018-09-27T08:36:57.976Z,6.30
2018-09-27T08:37:57.895Z,6.40
2018-09-27T08:38:57.813Z,6.20
2018-09-27T08:39:57.729Z,6.10
2018-09-27T08:40:57.667Z,5.90
2018-09-27T08:41:57.563Z,9.30
2018-09-27T08:42:57.483Z,6.30
2018-09-27T08:43:57.507Z,6.70
2018-09-27T08:44:57.481Z,6.40
2018-09-27T08:45:57.303Z,6.30
2018-09-27T08:46:57.157Z,5.60
2018-09-27T08:47:57.076Z,6.80
2018-09-27T08:48:56.995Z,6.50
2018-09-27T08:49:56.912Z,6.00
2018-09-27T08:50:56.850Z,6.50
2018-09-27T08:51:56.752Z,7.10
2018-09-27T08:52:56.666Z,6.60
2018-09-27T08:53:56.587Z,6.40
2018-09-27T08:54:56.504Z,6.30
2018-09-27T08:55:56.514Z,6.40
2018-09-27T08:56:56.344Z,6.50
2018-09-27T08:57:56.372Z,6.30
2018-09-27T08:58:56.179Z,6.40
2018-09-27T08:59:56.099Z,6.40
2018-09-27T09:00:56.034Z,6.40
2018-09-27T09:01:55.939Z,13.20
2018-09-27T09:02:55.863Z,9.80
2018-09-27T09:03:55.808Z,6.40
2018-09-27T09:04:55.807Z,6.30
2018-09-27T09:05:55.628Z,6.40
2018-09-27T09:06:55.533Z,7.20
2018-09-27T09:07:55.453Z,6.80
2018-09-27T09:08:55.370Z,20.20
2018-09-27T09:09:55.288Z,6.70
2018-09-27T09:10:55.210Z,6.80
2018-09-27T09:11:55.154Z,6.40
2018-09-27T09:12:55.048Z,7.30
2018-09-27T09:13:54.969Z,6.60
2018-09-27T09:14:54.886Z,6.30
2018-09-27T09:15:54.810Z,5.70
2018-09-27T09:16:54.743Z,6.30
2018-09-27T09:17:54.648Z,5.60
2018-09-27T09:18:54.685Z,5.70
2018-09-27T09:19:54.484Z,5.90
2018-09-27T09:20:54.406Z,6.00
2018-09-27T09:21:54.342Z,5.30
2018-09-27T09:22:54.241Z,5.30
2018-09-27T09:23:54.164Z,5.00
2018-09-27T09:24:54.081Z,4.80
2018-09-27T09:25:54.126Z,4.80
2018-09-27T09:26:53.941Z,4.40
2018-09-27T09:27:53.846Z,4.50
2018-09-27T09:28:53.756Z,4.20
2018-09-27T09:29:53.723Z,3.80
2018-09-27T09:30:53.596Z,3.70
2018-09-27T09:31:53.538Z,3.70
2018-09-27T09:32:53.436Z,4.20
2018-09-27T09:33:53.357Z,2.90
2018-09-27T09:34:53.274Z,2.80
2018-09-27T09:35:53.208Z,3.70
2018-09-27T09:36:53.125Z,3.10
2018-09-27T09:37:53.028Z,2.70
2018-09-27T09:38:52.945Z,3.60
2018-09-27T09:39:52.864Z,2.60
2018-09-27T09:40:52.784Z,2.70
2018-09-27T09:41:52.720Z,2.10
2018-09-27T09:42:52.621Z,2.90
2018-09-27T09:43:52.539Z,3.40
2018-09-27T09:44:52.456Z,2.30
2018-09-27T09:45:52.378Z,2.90
2018-09-27T09:46:52.309Z,2.10
2018-09-27T09:47:52.212Z,2.70
2018-09-27T09:48:52.132Z,2.30
2018-09-27T09:49:52.051Z,1.90
2018-09-27T09:50:51.964Z,2.60
2018-09-27T09:51:51.901Z,2.70
2018-09-27T09:52:51.802Z,11.60
2018-09-27T09:53:51.718Z,2.40
2018-09-27T09:54:51.638Z,2.40
2018-09-27T09:55:51.554Z,3.00
2018-09-27T09:56:51.487Z,2.50
2018-09-27T09:57:51.389Z,3.10
2018-09-27T09:58:51.303Z,3.60
2018-09-27T09:59:51.221Z,3.10
2018-09-27T10:00:51.141Z,3.00
2018-09-27T10:01:51.175Z,2.20
2018-09-27T10:02:50.974Z,4.20
2018-09-27T10:03:50.889Z,3.80
2018-09-27T10:04:50.808Z,2.90
2018-09-27T10:05:50.723Z,2.00
2018-09-27T10:06:50.654Z,2.10
2018-09-27T10:07:50.560Z,4.20
2018-09-27T10:08:50.603Z,3.40
2018-09-27T10:09:50.394Z,5.00
2018-09-27T10:10:50.310Z,5.10
2018-09-27T10:11:50.247Z,3.40
2018-09-27T10:12:50.149Z,1.60
2018-09-27T10:13:50.068Z,2.60
2018-09-27T10:14:49.984Z,3.80
2018-09-27T10:15:50.011Z,2.20
2018-09-27T10:16:49.842Z,1.50
2018-09-27T10:17:49.743Z,1.50
2018-09-27T10:18:49.664Z,1.50
2018-09-27T10:19:49.580Z,2.80
2018-09-27T10:20:49.497Z,3.30
2018-09-27T10:21:49.491Z,2.40
2018-09-27T10:22:49.436Z,6.70
2018-09-27T10:23:49.258Z,3.70
2018-09-27T10:24:49.176Z,2.10
2018-09-27T10:25:49.097Z,2.40
2018-09-27T10:26:49.029Z,2.60
2018-09-27T10:27:48.952Z,2.50
2018-09-27T10:28:48.859Z,2.60
2018-09-27T10:29:48.895Z,2.10
2018-09-27T10:30:48.694Z,1.50
2018-09-27T10:31:48.629Z,2.50
2018-09-27T10:32:48.533Z,2.60
2018-09-27T10:33:48.454Z,2.80
2018-09-27T10:34:48.374Z,4.80
2018-09-27T10:35:48.292Z,3.80
2018-09-27T10:36:48.229Z,1.70
2018-09-27T10:37:48.132Z,2.40
2018-09-27T10:38:48.048Z,1.90
2018-09-27T10:39:47.967Z,1.60
2018-09-27T10:40:47.888Z,2.10
2018-09-27T10:41:47.833Z,2.00
2018-09-27T10:42:47.727Z,2.80
2018-09-27T10:43:47.644Z,1.30
2018-09-27T10:44:47.576Z,1.10
2018-09-27T10:45:47.483Z,2.00
2018-09-27T10:46:47.418Z,1.60
2018-09-27T10:47:47.324Z,1.10
2018-09-27T10:48:47.240Z,1.10
2018-09-27T10:49:47.162Z,1.20
2018-09-27T10:50:47.078Z,1.40
2018-09-27T10:51:47.016Z,1.20
2018-09-27T10:52:46.915Z,2.50
2018-09-27T10:53:46.839Z,1.00
2018-09-27T10:54:46.761Z,1.70
2018-09-27T10:55:46.674Z,1.20
2018-09-27T10:56:46.594Z,1.30
2018-09-27T10:57:46.530Z,2.20
2018-09-27T10:58:46.433Z,1.80
2018-09-27T10:59:46.413Z,1.70
2018-09-27T11:00:46.270Z,1.90
2018-09-27T11:01:46.194Z,2.10
2018-09-27T11:02:46.124Z,1.60
2018-09-27T11:03:46.029Z,1.60
2018-09-27T11:04:45.954Z,1.10
2018-09-27T11:05:45.905Z,1.60
2018-09-27T11:06:45.793Z,1.70
2018-09-27T11:07:45.726Z,1.80
2018-09-27T11:08:45.629Z,2.60
2018-09-27T11:09:45.549Z,2.00
2018-09-27T11:10:45.467Z,1.00
2018-09-27T11:11:45.392Z,1.00
2018-09-27T11:12:45.327Z,0.80
2018-09-27T11:13:45.233Z,1.60
2018-09-27T11:14:45.155Z,1.60
2018-09-27T11:15:45.075Z,0.80
2018-09-27T11:16:45.086Z,0.90
2018-09-27T11:17:44.930Z,1.80
2018-09-27T11:18:44.833Z,1.30
2018-09-27T11:19:44.755Z,0.80
2018-09-27T11:20:44.675Z,1.70
2018-09-27T11:21:44.596Z,2.20
2018-09-27T11:22:44.537Z,2.20
2018-09-27T11:23:44.441Z,1.30
2018-09-27T11:24:44.359Z,2.20
2018-09-27T11:25:44.280Z,1.90
2018-09-27T11:26:44.198Z,1.50
2018-09-27T11:27:44.504Z,2.40
2018-09-27T11:28:44.041Z,1.40
2018-09-27T11:29:43.959Z,2.60
2018-09-27T11:30:43.884Z,1.90
2018-09-27T11:31:43.802Z,1.20
2018-09-27T11:32:43.738Z,1.40
2018-09-27T11:33:43.644Z,1.30
2018-09-27T11:34:43.569Z,1.40
2018-09-27T11:35:43.494Z,1.30
2018-09-27T11:36:43.407Z,1.50
2018-09-27T11:37:43.341Z,1.50
2018-09-27T11:38:43.374Z,1.70
2018-09-27T11:39:43.172Z,2.30
2018-09-27T11:40:43.090Z,2.30
2018-09-27T11:41:43.011Z,2.10
2018-09-27T11:42:42.977Z,5.20
2018-09-27T11:43:42.852Z,2.90
2018-09-27T11:44:42.773Z,3.00
2018-09-27T11:45:42.802Z,2.10
2018-09-27T11:46:42.614Z,1.80
2018-09-27T11:47:42.552Z,1.70
2018-09-27T11:48:42.459Z,4.50
2018-09-27T11:49:42.528Z,4.20
2018-09-27T11:50:42.296Z,3.00
2018-09-27T11:51:42.217Z,2.80
2018-09-27T11:52:42.256Z,1.90
2018-09-27T11:53:42.060Z,2.00
2018-09-27T11:54:41.983Z,3.30
2018-09-27T11:55:41.901Z,2.60
2018-09-27T11:56:41.823Z,2.40
2018-09-27T11:57:41.763Z,2.50
2018-09-27T11:58:41.666Z,2.70
2018-09-27T11:59:41.686Z,2.80
2018-09-27T12:00:41.521Z,3.90
2018-09-27T12:01:41.446Z,8.00
2018-09-27T12:02:41.368Z,7.20
2018-09-27T12:03:41.268Z,3.60
2018-09-27T12:04:41.188Z,3.00
2018-09-27T12:05:41.112Z,4.20
2018-09-27T12:06:41.173Z,2.70
2018-09-27T12:07:41.032Z,1.90
2018-09-27T12:08:40.874Z,4.90
2018-09-27T12:09:40.795Z,2.20
2018-09-27T12:10:40.715Z,3.00
2018-09-27T12:11:40.641Z,2.50
2018-09-27T12:12:40.574Z,3.50
2018-09-27T12:13:40.585Z,3.10
2018-09-27T12:14:40.457Z,2.40
2018-09-27T12:15:40.318Z,2.90
2018-09-27T12:16:40.246Z,2.50
2018-09-27T12:17:40.209Z,3.80
2018-09-27T12:18:40.079Z,2.90
2018-09-27T12:19:40.043Z,3.00
2018-09-27T12:20:40.025Z,3.80
2018-09-27T12:21:39.838Z,2.90
2018-09-27T12:22:39.775Z,2.90
2018-09-27T12:23:39.679Z,2.80
2018-09-27T12:24:39.601Z,4.30
2018-09-27T12:25:39.548Z,3.30
2018-09-27T12:26:39.439Z,1.90
2018-09-27T12:27:39.483Z,1.70
2018-09-27T12:28:39.309Z,3.30
2018-09-27T12:29:39.209Z,2.00
2018-09-27T12:30:39.123Z,2.50
2018-09-27T12:31:39.044Z,1.70
2018-09-27T12:32:38.978Z,1.60
2018-09-27T12:33:38.890Z,1.90
2018-09-27T12:34:38.905Z,1.60
2018-09-27T12:35:38.722Z,2.70
2018-09-27T12:36:38.673Z,1.90
2018-09-27T12:37:38.580Z,3.30
2018-09-27T12:38:38.527Z,1.40
2018-09-27T12:39:38.416Z,2.00
2018-09-27T12:40:38.333Z,3.40
2018-09-27T12:41:38.393Z,3.00
2018-09-27T12:42:38.247Z,2.00
2018-09-27T12:43:38.078Z,2.80
2018-09-27T12:44:38.000Z,2.50
2018-09-27T12:45:38.053Z,2.60
2018-09-27T12:46:37.862Z,2.30
2018-09-27T12:47:37.758Z,1.90
2018-09-27T12:48:37.959Z,2.80
2018-09-27T12:49:37.595Z,1.50
2018-09-27T12:50:37.561Z,1.90
2018-09-27T12:51:37.549Z,2.80
2018-09-27T12:52:37.420Z,2.10
2018-09-27T12:53:37.286Z,2.10
2018-09-27T12:54:37.320Z,2.40
2018-09-27T12:55:37.112Z,2.90
2018-09-27T12:56:37.026Z,2.30
2018-09-27T12:57:36.949Z,2.10
2018-09-27T12:58:36.916Z,1.50
2018-09-27T12:59:36.778Z,2.50
2018-09-27T13:00:36.699Z,1.80
2018-09-27T13:01:36.718Z,2.20
2018-09-27T13:02:36.716Z,1.60
2018-09-27T13:03:36.463Z,1.30
2018-09-27T13:04:36.372Z,1.30
2018-09-27T13:05:36.281Z,2.40
2018-09-27T13:06:36.196Z,1.70
2018-09-27T13:07:36.114Z,1.60
2018-09-27T13:08:36.159Z,3.00
2018-09-27T13:09:36.037Z,1.50
2018-09-27T13:10:35.859Z,1.50
2018-09-27T13:11:40.641Z,1.60
2018-09-27T13:12:35.832Z,2.50
2018-09-27T13:13:35.755Z,1.80
2018-09-27T13:14:35.580Z,2.40
2018-09-27T13:15:35.435Z,1.70
2018-09-27T13:16:35.350Z,1.80
2018-09-27T13:17:35.352Z,1.50